createdAt,value
2023-04-23T00:01:08.871Z,9.38
2023-04-23T00:03:37.691Z,9.36
2023-04-23T00:06:10.316Z,9.50
2023-04-23T00:08:41.377Z,9.47
2023-04-23T00:11:08.740Z,9.28
2023-04-23T00:13:36.376Z,9.34
2023-04-23T00:16:03.542Z,9.28
2023-04-23T00:18:30.349Z,9.17
2023-04-23T00:20:57.461Z,9.17
2023-04-23T00:23:24.221Z,9.25
2023-04-23T00:25:51.010Z,9.30
2023-04-23T00:28:18.742Z,9.23
2023-04-23T00:30:46.141Z,9.22
2023-04-23T00:33:12.974Z,9.24
2023-04-23T00:35:39.678Z,9.13
2023-04-23T00:38:06.420Z,9.14
2023-04-23T00:40:33.172Z,9.05
2023-04-23T00:51:44.298Z,9.22
2023-04-23T00:54:11.074Z,9.37
2023-04-23T00:56:37.840Z,9.42
2023-04-23T00:59:05.017Z,9.51
2023-04-23T01:01:33.390Z,9.50
2023-04-23T01:04:00.529Z,9.42
2023-04-23T01:06:28.814Z,9.46
2023-04-23T01:08:56.122Z,9.47
2023-04-23T01:11:23.220Z,9.52
2023-04-23T01:13:50.898Z,9.40
2023-04-23T01:16:18.628Z,9.32
2023-04-23T01:18:45.361Z,9.34
2023-04-23T01:21:12.811Z,9.30
2023-04-23T01:23:40.030Z,9.30
2023-04-23T01:26:07.372Z,9.34
2023-04-23T01:28:34.971Z,9.11
2023-04-23T01:31:02.632Z,9.04
2023-04-23T01:33:30.650Z,9.04
2023-04-23T01:35:58.853Z,9.03
2023-04-23T01:38:28.532Z,9.12
2023-04-23T01:40:55.260Z,9.08
2023-04-23T01:43:22.924Z,9.10
2023-04-23T01:45:49.675Z,9.10
2023-04-23T01:48:16.539Z,9.30
2023-04-23T01:50:43.904Z,9.24
2023-04-23T01:53:10.844Z,9.28
2023-04-23T01:55:39.520Z,9.29
2023-04-23T01:58:06.660Z,9.31
2023-04-23T02:00:33.349Z,9.23
2023-04-23T02:03:00.526Z,9.36
2023-04-23T02:05:29.879Z,9.43
2023-04-23T02:07:56.939Z,9.49
2023-04-23T02:10:23.780Z,9.50
2023-04-23T02:12:50.553Z,9.60
2023-04-23T02:15:17.711Z,9.76
2023-04-23T02:17:44.461Z,9.81
2023-04-23T02:20:12.109Z,9.79
2023-04-23T02:22:40.938Z,9.77
2023-04-23T02:25:08.420Z,9.81
2023-04-23T02:27:35.550Z,9.84
2023-04-23T02:30:03.815Z,9.82
2023-04-23T02:32:31.244Z,9.80
2023-04-23T02:34:59.639Z,9.83
2023-04-23T02:37:26.916Z,9.85
2023-04-23T02:39:53.834Z,9.84
2023-04-23T02:42:20.732Z,9.85
2023-04-23T02:44:47.645Z,9.88
2023-04-23T02:47:14.467Z,9.97
2023-04-23T02:49:41.103Z,10.01
2023-04-23T02:52:07.850Z,10.09
2023-04-23T02:54:34.618Z,10.10
2023-04-23T02:57:01.671Z,10.13
2023-04-23T02:59:28.431Z,10.12
2023-04-23T03:01:55.303Z,10.19
2023-04-23T03:04:22.861Z,10.14
2023-04-23T03:06:50.465Z,10.09
2023-04-23T03:09:17.312Z,10.08
2023-04-23T03:11:44.343Z,9.98
2023-04-23T03:14:13.130Z,9.94
2023-04-23T03:16:39.904Z,9.89
2023-04-23T03:19:06.695Z,9.83
2023-04-23T03:21:33.410Z,9.87
2023-04-23T03:24:00.131Z,9.88
2023-04-23T03:26:26.896Z,9.91
2023-04-23T03:28:54.036Z,9.90
2023-04-23T03:31:20.935Z,9.69
2023-04-23T03:33:47.692Z,9.62
2023-04-23T03:36:19.405Z,9.57
2023-04-23T03:38:46.286Z,9.65
2023-04-23T03:41:13.055Z,9.65
2023-04-23T03:43:39.898Z,9.70
2023-04-23T03:46:16.609Z,9.73
2023-04-23T03:48:43.868Z,9.67
2023-04-23T03:51:17.593Z,9.73
2023-04-23T03:53:47.496Z,9.68
2023-04-23T03:56:32.569Z,9.69
2023-04-23T03:59:28.786Z,9.73
2023-04-23T04:01:58.775Z,9.76
2023-04-23T04:04:26.725Z,9.74
2023-04-23T04:06:55.347Z,9.67
2023-04-23T04:09:27.121Z,9.56
2023-04-23T04:11:54.234Z,9.57
2023-04-23T04:14:22.221Z,9.62
2023-04-23T04:16:49.302Z,9.74
2023-04-23T04:19:16.360Z,9.80
2023-04-23T04:21:42.975Z,9.86
2023-04-23T04:24:11.573Z,9.90
2023-04-23T04:26:38.546Z,9.90
2023-04-23T04:29:05.371Z,9.96
2023-04-23T04:31:32.603Z,10.13
2023-04-23T04:33:59.473Z,10.31
2023-04-23T04:36:27.314Z,10.44
2023-04-23T04:38:58.757Z,10.45
2023-04-23T04:41:25.783Z,10.35
2023-04-23T04:43:52.513Z,10.16
2023-04-23T04:46:22.124Z,10.15
2023-04-23T04:48:48.842Z,10.12
2023-04-23T04:51:16.110Z,10.20
2023-04-23T04:53:42.854Z,10.19
2023-04-23T04:56:09.573Z,10.26
2023-04-23T04:58:36.473Z,10.45
2023-04-23T05:01:03.303Z,10.44
2023-04-23T05:03:30.178Z,10.49
2023-04-23T05:05:58.635Z,10.53
2023-04-23T05:08:25.610Z,10.80
2023-04-23T05:10:54.097Z,10.91
2023-04-23T05:13:20.771Z,11.02
2023-04-23T05:15:47.628Z,11.04
2023-04-23T05:18:14.623Z,11.13
2023-04-23T05:20:41.714Z,11.15
2023-04-23T05:23:08.413Z,11.20
2023-04-23T05:25:35.786Z,11.15
2023-04-23T05:28:02.542Z,11.31
2023-04-23T05:30:29.574Z,11.58
2023-04-23T05:32:56.380Z,11.66
2023-04-23T05:35:23.109Z,11.50
2023-04-23T05:37:49.853Z,11.70
2023-04-23T05:40:16.976Z,12.01
2023-04-23T05:42:43.820Z,11.99
2023-04-23T05:45:11.164Z,12.23
2023-04-23T05:47:37.984Z,12.46
2023-04-23T05:50:05.840Z,12.25
2023-04-23T05:52:33.588Z,12.64
2023-04-23T05:55:00.419Z,12.94
2023-04-23T05:57:27.028Z,13.07
2023-04-23T05:59:53.682Z,12.77
2023-04-23T06:02:22.463Z,12.35
2023-04-23T06:04:51.062Z,12.30
2023-04-23T06:07:17.911Z,12.34
2023-04-23T06:09:44.654Z,12.58
2023-04-23T06:12:11.751Z,12.91
2023-04-23T06:14:38.470Z,12.90
2023-04-23T06:17:05.088Z,12.87
2023-04-23T06:19:31.851Z,13.04
2023-04-23T06:21:58.602Z,13.15
2023-04-23T06:24:25.393Z,13.60
2023-04-23T06:26:52.112Z,14.05
2023-04-23T06:29:20.827Z,14.37
2023-04-23T06:31:55.640Z,14.54
2023-04-23T06:34:22.479Z,14.66
2023-04-23T06:36:51.819Z,14.47
2023-04-23T06:39:18.818Z,14.46
2023-04-23T06:41:45.610Z,14.61
2023-04-23T06:44:34.739Z,14.83
2023-04-23T06:47:02.988Z,15.04
2023-04-23T06:49:29.804Z,15.06
2023-04-23T06:51:57.928Z,15.20
2023-04-23T06:54:24.710Z,15.27
2023-04-23T06:56:51.366Z,15.40
2023-04-23T06:59:18.223Z,15.53
2023-04-23T07:01:47.597Z,15.72
2023-04-23T07:04:14.517Z,15.84
2023-04-23T07:06:41.249Z,15.94
2023-04-23T07:09:09.556Z,16.11
2023-04-23T07:11:37.097Z,16.24
2023-04-23T07:14:04.172Z,16.31
2023-04-23T07:16:33.697Z,16.50
2023-04-23T07:19:02.415Z,17.14
2023-04-23T07:21:29.790Z,17.95
2023-04-23T07:24:07.330Z,18.32
2023-04-23T07:26:35.474Z,17.91
2023-04-23T07:29:04.003Z,17.70
2023-04-23T07:31:31.097Z,17.37
2023-04-23T07:33:57.845Z,17.21
2023-04-23T07:36:24.651Z,17.39
2023-04-23T07:38:51.398Z,17.65
2023-04-23T07:41:18.570Z,17.46
2023-04-23T07:43:45.744Z,17.54
2023-04-23T07:46:12.716Z,16.88
2023-04-23T07:48:39.684Z,16.71
2023-04-23T07:51:07.040Z,16.99
2023-04-23T07:53:34.463Z,16.74
2023-04-23T07:56:01.405Z,16.45
2023-04-23T07:58:28.273Z,16.43
2023-04-23T08:00:55.139Z,16.44
2023-04-23T08:03:22.765Z,16.42
2023-04-23T08:05:49.664Z,16.48
2023-04-23T08:08:16.456Z,16.40
2023-04-23T08:10:43.333Z,16.59
2023-04-23T08:13:10.179Z,16.65
2023-04-23T08:15:37.105Z,16.72
2023-04-23T08:18:04.687Z,17.07
2023-04-23T08:20:32.607Z,16.97
2023-04-23T08:22:59.740Z,17.25
2023-04-23T08:25:26.495Z,17.42
2023-04-23T08:27:53.206Z,17.43
2023-04-23T08:30:20.000Z,17.12
2023-04-23T08:32:49.798Z,17.19
2023-04-23T08:35:16.646Z,17.13
2023-04-23T08:37:43.349Z,16.74
2023-04-23T08:40:11.205Z,16.79
2023-04-23T08:42:46.168Z,16.90
2023-04-23T08:45:13.496Z,17.03
2023-04-23T08:47:43.909Z,17.05
2023-04-23T08:50:18.750Z,16.51
2023-04-23T08:52:55.142Z,16.47
2023-04-23T08:55:23.563Z,16.69
2023-04-23T08:57:50.981Z,16.62
2023-04-23T09:00:19.886Z,16.50
2023-04-23T09:02:48.987Z,16.52
2023-04-23T09:05:16.654Z,16.46
2023-04-23T09:07:43.810Z,16.60
2023-04-23T09:10:12.990Z,16.72
2023-04-23T09:12:43.189Z,16.75
2023-04-23T09:15:11.121Z,16.76
2023-04-23T09:17:44.338Z,17.02
2023-04-23T09:20:12.527Z,17.24
2023-04-23T09:22:41.093Z,17.42
2023-04-23T09:25:09.534Z,17.32
2023-04-23T09:27:39.024Z,17.36
2023-04-23T09:30:08.221Z,17.13
2023-04-23T09:32:35.845Z,16.99
2023-04-23T09:35:10.814Z,17.00
2023-04-23T09:37:38.043Z,17.16
2023-04-23T09:40:09.494Z,17.08
2023-04-23T09:42:37.170Z,17.26
2023-04-23T09:45:07.432Z,16.98
2023-04-23T09:47:51.821Z,16.90
2023-04-23T09:50:20.092Z,17.24
2023-04-23T09:52:53.763Z,17.06
2023-04-23T09:55:39.176Z,17.31
2023-04-23T09:58:16.372Z,17.28
2023-04-23T10:00:43.487Z,17.32
2023-04-23T10:03:10.943Z,17.67
2023-04-23T10:05:56.186Z,17.40
2023-04-23T10:08:28.135Z,17.16
2023-04-23T10:11:09.431Z,17.41
2023-04-23T10:13:41.628Z,17.56
2023-04-23T10:16:21.668Z,17.67
2023-04-23T10:18:53.011Z,18.22
2023-04-23T10:21:21.065Z,18.43
2023-04-23T10:23:50.279Z,18.65
2023-04-23T10:26:20.250Z,18.14
2023-04-23T10:28:48.797Z,18.58
2023-04-23T10:31:16.360Z,18.93
2023-04-23T10:33:56.167Z,19.22
2023-04-23T10:36:27.770Z,19.37
2023-04-23T10:38:59.116Z,18.77
2023-04-23T10:41:35.630Z,18.57
2023-04-23T10:44:04.231Z,17.99
2023-04-23T10:46:32.538Z,18.36
2023-04-23T10:49:25.428Z,18.45
2023-04-23T10:54:36.199Z,18.15
2023-04-23T10:57:07.345Z,18.05
2023-04-23T10:59:38.689Z,18.04
2023-04-23T11:02:11.530Z,17.96
2023-04-23T11:04:56.165Z,18.21
2023-04-23T11:07:29.921Z,18.41
2023-04-23T11:09:59.538Z,18.31
2023-04-23T11:12:27.021Z,18.37
2023-04-23T11:14:55.353Z,18.50
2023-04-23T11:17:43.531Z,18.52
2023-04-23T11:20:15.657Z,18.88
2023-04-23T11:22:44.173Z,18.97
2023-04-23T11:25:13.469Z,19.00
2023-04-23T11:27:44.764Z,19.09
2023-04-23T11:30:13.461Z,19.15
2023-04-23T11:32:41.870Z,19.12
2023-04-23T11:35:12.542Z,18.90
2023-04-23T11:37:41.707Z,19.01
2023-04-23T11:40:11.379Z,19.04
2023-04-23T11:42:46.610Z,19.20
2023-04-23T11:45:17.910Z,18.72
2023-04-23T11:47:46.292Z,18.11
2023-04-23T11:50:41.637Z,18.22
2023-04-23T11:53:12.430Z,18.53
2023-04-23T11:55:43.844Z,18.06
2023-04-23T11:58:11.476Z,17.91
2023-04-23T12:00:38.275Z,18.27
2023-04-23T12:03:06.365Z,18.69
2023-04-23T12:05:38.037Z,18.67
2023-04-23T12:08:10.166Z,19.00
2023-04-23T12:10:53.308Z,18.19
2023-04-23T12:13:25.004Z,18.50
2023-04-23T12:15:56.498Z,18.97
2023-04-23T12:18:37.940Z,18.97
2023-04-23T12:21:12.511Z,19.36
2023-04-23T12:23:41.603Z,19.36
2023-04-23T12:26:15.790Z,19.25
2023-04-23T12:28:59.165Z,17.83
2023-04-23T12:31:31.032Z,17.91
2023-04-23T12:34:02.587Z,18.21
2023-04-23T12:36:30.970Z,18.10
2023-04-23T12:39:30.285Z,18.33
2023-04-23T12:42:08.301Z,18.23
2023-04-23T12:44:36.525Z,17.93
2023-04-23T12:47:07.758Z,18.19
2023-04-23T12:49:36.326Z,18.10
2023-04-23T12:52:04.804Z,18.48
2023-04-23T12:54:33.339Z,18.81
2023-04-23T12:57:03.893Z,18.47
2023-04-23T12:59:31.591Z,18.69
2023-04-23T13:02:03.093Z,18.86
2023-04-23T13:04:34.168Z,18.82
2023-04-23T13:07:01.478Z,18.62
2023-04-23T13:09:28.777Z,18.32
2023-04-23T13:11:55.805Z,17.99
2023-04-23T13:14:22.733Z,18.17
2023-04-23T13:16:50.682Z,18.14
2023-04-23T13:19:17.719Z,18.13
2023-04-23T13:21:45.316Z,18.02
2023-04-23T13:24:13.877Z,17.99
2023-04-23T13:26:41.200Z,18.37
2023-04-23T13:29:08.096Z,18.47
2023-04-23T13:31:34.931Z,18.49
2023-04-23T13:34:02.989Z,18.19
2023-04-23T13:36:29.836Z,17.97
2023-04-23T13:38:56.857Z,18.02
2023-04-23T13:41:23.611Z,17.82
2023-04-23T13:43:50.469Z,17.89
2023-04-23T13:46:17.251Z,18.12
2023-04-23T13:48:44.011Z,17.75
2023-04-23T13:51:25.393Z,17.93
2023-04-23T13:53:58.369Z,18.03
2023-04-23T13:56:26.908Z,17.93
2023-04-23T13:59:02.066Z,18.02
2023-04-23T14:01:31.821Z,17.97
2023-04-23T14:03:58.633Z,17.94
2023-04-23T14:06:25.562Z,17.79
2023-04-23T14:08:52.208Z,17.75
2023-04-23T14:11:19.256Z,17.99
2023-04-23T14:13:45.981Z,18.19
2023-04-23T14:16:12.842Z,17.88
2023-04-23T14:18:39.580Z,17.68
2023-04-23T14:21:07.404Z,17.85
2023-04-23T14:23:44.530Z,17.98
2023-04-23T14:26:22.494Z,18.04
2023-04-23T14:28:51.974Z,18.30
2023-04-23T14:31:18.666Z,17.97
2023-04-23T14:33:45.400Z,18.27
2023-04-23T14:36:12.131Z,18.18
2023-04-23T14:38:38.810Z,18.13
2023-04-23T14:41:05.979Z,18.16
2023-04-23T14:43:34.123Z,17.92
2023-04-23T14:46:01.780Z,18.08
2023-04-23T14:48:28.605Z,18.02
2023-04-23T14:50:55.274Z,18.08
2023-04-23T14:53:22.079Z,17.93
2023-04-23T14:55:48.738Z,17.99
2023-04-23T14:58:15.562Z,17.94
2023-04-23T15:00:42.337Z,18.08
2023-04-23T15:03:11.061Z,17.91
2023-04-23T15:05:40.144Z,18.03
2023-04-23T15:08:06.898Z,18.03
2023-04-23T15:10:33.777Z,18.05
2023-04-23T15:13:35.747Z,18.02
2023-04-23T15:16:07.674Z,17.87
2023-04-23T15:18:35.142Z,17.88
2023-04-23T15:21:03.714Z,17.85
2023-04-23T15:23:31.721Z,17.76
2023-04-23T15:25:58.640Z,17.72
2023-04-23T15:28:25.636Z,17.85
2023-04-23T15:30:52.573Z,17.77
2023-04-23T15:33:21.804Z,17.79
2023-04-23T15:35:50.956Z,17.78
2023-04-23T15:38:18.736Z,17.91
2023-04-23T15:40:45.543Z,17.93
2023-04-23T15:43:15.970Z,17.95
2023-04-23T15:45:43.341Z,18.01
2023-04-23T15:48:10.150Z,18.10
2023-04-23T15:50:36.859Z,17.90
2023-04-23T15:53:04.146Z,17.83
2023-04-23T15:55:31.002Z,17.82
2023-04-23T15:57:59.074Z,17.71
2023-04-23T16:00:26.002Z,17.71
2023-04-23T16:02:52.982Z,17.64
2023-04-23T16:05:20.070Z,17.53
2023-04-23T16:07:46.814Z,17.55
2023-04-23T16:10:13.476Z,17.60
2023-04-23T16:12:45.408Z,17.60
2023-04-23T16:17:44.213Z,17.56
2023-04-23T16:20:11.224Z,17.59
2023-04-23T16:22:38.196Z,17.51
2023-04-23T16:25:05.906Z,17.46
2023-04-23T16:27:32.641Z,17.48
2023-04-23T16:29:59.391Z,17.48
2023-04-23T16:32:26.211Z,17.50
2023-04-23T16:34:52.978Z,17.45
2023-04-23T16:37:19.665Z,17.56
2023-04-23T16:39:46.611Z,17.62
2023-04-23T16:42:13.285Z,17.58
2023-04-23T16:44:40.229Z,17.57
2023-04-23T16:47:07.086Z,17.50
2023-04-23T16:49:33.793Z,17.46
2023-04-23T16:52:01.732Z,17.49
2023-04-23T16:54:28.983Z,17.49
2023-04-23T16:56:55.770Z,17.56
2023-04-23T16:59:22.634Z,17.51
2023-04-23T17:01:49.659Z,17.48
2023-04-23T17:04:16.965Z,17.54
2023-04-23T17:06:43.859Z,17.52
2023-04-23T17:09:10.588Z,17.48
2023-04-23T17:11:37.407Z,17.40
2023-04-23T17:14:04.081Z,17.30
2023-04-23T17:16:31.169Z,17.22
2023-04-23T17:18:57.997Z,17.21
2023-04-23T17:21:25.933Z,17.21
2023-04-23T17:23:52.693Z,17.08
2023-04-23T17:26:19.610Z,17.00
2023-04-23T17:28:46.529Z,16.90
2023-04-23T17:31:13.426Z,16.81
2023-04-23T17:33:40.247Z,16.64
2023-04-23T17:36:07.203Z,16.64
2023-04-23T17:38:34.441Z,16.58
2023-04-23T17:41:01.107Z,16.55
2023-04-23T17:43:27.845Z,16.43
2023-04-23T17:45:54.649Z,16.27
2023-04-23T17:48:23.088Z,16.23
2023-04-23T17:50:50.249Z,16.05
2023-04-23T17:53:17.184Z,15.99
2023-04-23T17:55:43.969Z,16.02
2023-04-23T17:58:10.766Z,15.61
2023-04-23T18:00:39.888Z,15.48
2023-04-23T18:03:07.447Z,15.33
2023-04-23T18:05:34.414Z,15.31
2023-04-23T18:08:01.717Z,15.30
2023-04-23T18:10:29.595Z,15.33
2023-04-23T18:12:56.613Z,15.23
2023-04-23T18:15:25.672Z,15.14
2023-04-23T18:17:55.853Z,14.82
2023-04-23T18:20:25.079Z,14.51
2023-04-23T18:22:54.312Z,14.31
2023-04-23T18:25:21.519Z,14.07
2023-04-23T18:27:48.835Z,14.17
2023-04-23T18:30:15.859Z,14.12
2023-04-23T18:32:47.849Z,14.04
2023-04-23T18:35:14.921Z,14.04
2023-04-23T18:37:41.637Z,14.01
2023-04-23T18:40:09.214Z,13.68
2023-04-23T18:42:35.911Z,13.54
2023-04-23T18:45:04.271Z,13.53
2023-04-23T18:47:46.113Z,13.47
2023-04-23T18:50:38.273Z,13.74
2023-04-23T18:53:05.345Z,14.03
2023-04-23T18:55:32.167Z,14.33
2023-04-23T18:57:59.076Z,14.38
2023-04-23T19:00:25.967Z,14.29
2023-04-23T19:02:52.895Z,14.17
2023-04-23T19:05:20.075Z,14.04
2023-04-23T19:07:48.438Z,13.83
2023-04-23T19:10:16.420Z,13.68
2023-04-23T19:12:44.092Z,13.58
2023-04-23T19:15:11.505Z,13.44
2023-04-23T19:17:38.713Z,13.18
2023-04-23T19:20:09.317Z,12.78
2023-04-23T19:22:36.073Z,12.58
2023-04-23T19:25:02.831Z,12.69
2023-04-23T19:27:29.513Z,12.70
2023-04-23T19:29:56.725Z,12.65
2023-04-23T19:32:23.483Z,12.61
2023-04-23T19:34:50.380Z,12.36
2023-04-23T19:37:17.109Z,12.29
2023-04-23T19:39:43.929Z,12.32
2023-04-23T19:42:11.447Z,12.39
2023-04-23T19:44:38.207Z,12.33
2023-04-23T19:47:05.505Z,11.73
2023-04-23T19:49:32.466Z,11.80
2023-04-23T19:52:03.351Z,11.84
2023-04-23T19:54:30.055Z,11.89
2023-04-23T19:56:56.696Z,11.94
2023-04-23T19:59:23.880Z,12.04
2023-04-23T20:01:51.291Z,12.16
2023-04-23T20:04:18.008Z,12.20
2023-04-23T20:06:44.851Z,12.23
2023-04-23T20:09:18.445Z,12.25
2023-04-23T20:11:46.286Z,12.27
2023-04-23T20:14:13.401Z,12.33
2023-04-23T20:16:41.255Z,12.21
2023-04-23T20:19:12.381Z,12.17
2023-04-23T20:21:40.289Z,12.15
2023-04-23T20:24:08.353Z,12.09
2023-04-23T20:26:35.999Z,12.14
2023-04-23T20:29:03.787Z,12.09
2023-04-23T20:31:31.041Z,11.96
2023-04-23T20:33:58.054Z,11.95
2023-04-23T20:36:28.953Z,11.94
2023-04-23T20:38:58.079Z,11.93
2023-04-23T20:41:26.319Z,11.84
2023-04-23T20:43:53.050Z,11.81
2023-04-23T20:46:19.906Z,11.86
2023-04-23T20:48:50.273Z,11.97
2023-04-23T20:51:16.972Z,11.99
2023-04-23T20:53:43.669Z,11.90
2023-04-23T20:56:10.473Z,11.83
2023-04-23T20:58:38.943Z,11.91
2023-04-23T21:01:07.647Z,11.94
2023-04-23T21:03:37.031Z,12.04
2023-04-23T21:06:05.522Z,12.16
2023-04-23T21:08:32.610Z,12.28
2023-04-23T21:10:59.952Z,12.38
2023-04-23T21:13:26.686Z,12.38
2023-04-23T21:15:53.435Z,12.40
2023-04-23T21:18:20.215Z,12.35
2023-04-23T21:20:47.028Z,12.39
2023-04-23T21:23:13.913Z,12.41
2023-04-23T21:25:40.748Z,12.41
2023-04-23T21:28:07.502Z,12.43
2023-04-23T21:31:13.926Z,12.40
2023-04-23T21:33:40.733Z,12.39
2023-04-23T21:36:07.489Z,12.39
2023-04-23T21:38:34.299Z,12.38
2023-04-23T21:41:02.260Z,12.40
2023-04-23T21:43:29.700Z,12.40
2023-04-23T21:45:56.497Z,12.31
2023-04-23T21:48:23.463Z,12.18
2023-04-23T21:50:50.333Z,12.04
2023-04-23T21:53:17.221Z,12.06
2023-04-23T21:55:43.871Z,12.11
2023-04-23T21:58:17.425Z,12.08
2023-04-23T22:00:45.337Z,12.13
2023-04-23T22:03:12.886Z,12.07
2023-04-23T22:05:42.540Z,12.13
2023-04-23T22:08:09.700Z,12.11
2023-04-23T22:10:42.845Z,12.13
2023-04-23T22:13:11.179Z,12.16
2023-04-23T22:15:38.778Z,12.11
2023-04-23T22:18:05.836Z,12.08
2023-04-23T22:20:32.703Z,12.14
2023-04-23T22:22:59.581Z,12.09
2023-04-23T22:25:26.270Z,12.08
2023-04-23T22:27:53.019Z,12.06
2023-04-23T22:30:19.851Z,12.11
2023-04-23T22:32:46.638Z,12.16
2023-04-23T22:35:13.737Z,12.10
2023-04-23T22:37:40.645Z,12.08
2023-04-23T22:40:10.370Z,12.11
2023-04-23T22:42:37.754Z,12.07
2023-04-23T22:45:06.232Z,12.10
2023-04-23T22:47:33.308Z,12.11
2023-04-23T22:50:00.092Z,12.17
2023-04-23T22:52:27.081Z,12.28
2023-04-23T22:54:55.024Z,12.44
2023-04-23T22:57:21.946Z,12.58
2023-04-23T22:59:48.808Z,12.62
2023-04-23T23:02:16.115Z,12.70
2023-04-23T23:04:43.097Z,12.76
2023-04-23T23:07:10.031Z,12.73
2023-04-23T23:09:36.873Z,12.71
2023-04-23T23:12:04.819Z,12.69
2023-04-23T23:14:33.342Z,12.71
2023-04-23T23:17:00.073Z,12.72
2023-04-23T23:19:31.340Z,12.77
2023-04-23T23:21:58.326Z,12.79
2023-04-23T23:24:25.168Z,12.80
2023-04-23T23:26:51.856Z,12.84
2023-04-23T23:29:18.575Z,12.78
2023-04-23T23:31:45.496Z,12.78
2023-04-23T23:34:12.529Z,12.68
2023-04-23T23:36:39.324Z,12.65
2023-04-23T23:39:06.944Z,12.69
2023-04-23T23:41:33.819Z,12.61
2023-04-23T23:44:00.526Z,12.67
2023-04-23T23:46:27.683Z,12.68
2023-04-23T23:48:54.609Z,12.67
2023-04-23T23:51:21.384Z,12.55
2023-04-23T23:53:48.126Z,12.42
2023-04-23T23:56:14.883Z,12.24
2023-04-23T23:58:41.696Z,12.21
